Rogart, United Kingdom
Current Conditions -  °F | °C
As of 11:20 PM on Thursday 18 Dec 2014 (Local Time) from EGPE Reporting Station
Scattered Clouds Scattered Clouds  
Wind Chill: -1°   Ceiling: Unl
Heat Index:   Visibility: 6mi
Dew Point:   Wind: 13mph
Humidity: 87%   Direction: 230°SW
Pressure: 29.32"   Gusts: NA
Location:  57.99°N, 4.16°W
Report Text: EGPE 182320Z AUTO 23011KT 9999 FEW036/// SCT046/// 03/01 Q0993
Loading
Personal Weather Stations






























Interactive Weather Map New forecast layout! Learn more

10-Day Weather Forecast

Advertisements
Track Severe Weather on mobile